sensor_id;sensor_type;location;lat;lon;timestamp;P1;durP1;ratioP1;P2;durP2;ratioP2
27383;SDS011;14851;51.166;4.760;2022-08-19T00:00:22;11.35;;;10.13;;
27383;SDS011;14851;51.166;4.760;2022-08-19T00:02:49;12.15;;;11.05;;
27383;SDS011;14851;51.166;4.760;2022-08-19T00:05:19;12.13;;;10.93;;
27383;SDS011;14851;51.166;4.760;2022-08-19T00:07:50;12.57;;;11.40;;
27383;SDS011;14851;51.166;4.760;2022-08-19T00:10:17;12.07;;;11.05;;
27383;SDS011;14851;51.166;4.760;2022-08-19T00:12:44;11.65;;;10.55;;
27383;SDS011;14851;51.166;4.760;2022-08-19T00:15:13;15.85;;;14.20;;
27383;SDS011;14851;51.166;4.760;2022-08-19T00:17:41;15.35;;;13.95;;
27383;SDS011;14851;51.166;4.760;2022-08-19T00:20:10;15.27;;;13.93;;
27383;SDS011;14851;51.166;4.760;2022-08-19T00:22:38;14.48;;;12.98;;
27383;SDS011;14851;51.166;4.760;2022-08-19T00:25:06;17.55;;;16.05;;
27383;SDS011;14851;51.166;4.760;2022-08-19T00:27:34;19.42;;;17.52;;
27383;SDS011;14851;51.166;4.760;2022-08-19T00:30:00;13.95;;;12.60;;
27383;SDS011;14851;51.166;4.760;2022-08-19T00:32:29;14.48;;;12.88;;
27383;SDS011;14851;51.166;4.760;2022-08-19T00:34:55;14.70;;;13.13;;
27383;SDS011;14851;51.166;4.760;2022-08-19T00:37:23;14.40;;;13.10;;
27383;SDS011;14851;51.166;4.760;2022-08-19T00:39:52;15.13;;;13.73;;
27383;SDS011;14851;51.166;4.760;2022-08-19T00:42:19;16.45;;;14.63;;
27383;SDS011;14851;51.166;4.760;2022-08-19T00:44:47;16.90;;;15.40;;
27383;SDS011;14851;51.166;4.760;2022-08-19T00:47:14;15.15;;;13.65;;
27383;SDS011;14851;51.166;4.760;2022-08-19T00:49:43;19.83;;;17.92;;
27383;SDS011;14851;51.166;4.760;2022-08-19T00:52:22;19.55;;;17.50;;
27383;SDS011;14851;51.166;4.760;2022-08-19T00:54:54;17.05;;;15.30;;
27383;SDS011;14851;51.166;4.760;2022-08-19T00:57:22;17.65;;;15.85;;
27383;SDS011;14851;51.166;4.760;2022-08-19T01:00:04;17.42;;;15.82;;
27383;SDS011;14851;51.166;4.760;2022-08-19T01:02:33;17.67;;;15.70;;
27383;SDS011;14851;51.166;4.760;2022-08-19T01:05:02;17.58;;;15.85;;
27383;SDS011;14851;51.166;4.760;2022-08-19T01:07:30;18.10;;;16.30;;
27383;SDS011;14851;51.166;4.760;2022-08-19T01:09:57;24.60;;;20.55;;
27383;SDS011;14851;51.166;4.760;2022-08-19T01:12:25;29.25;;;26.02;;
27383;SDS011;14851;51.166;4.760;2022-08-19T01:14:51;31.75;;;28.10;;
27383;SDS011;14851;51.166;4.760;2022-08-19T01:17:19;32.65;;;29.08;;
27383;SDS011;14851;51.166;4.760;2022-08-19T01:19:48;33.00;;;27.75;;
27383;SDS011;14851;51.166;4.760;2022-08-19T01:24:51;33.10;;;28.33;;
27383;SDS011;14851;51.166;4.760;2022-08-19T01:27:18;34.65;;;28.83;;
27383;SDS011;14851;51.166;4.760;2022-08-19T01:29:45;33.97;;;29.35;;
27383;SDS011;14851;51.166;4.760;2022-08-19T01:32:14;36.45;;;29.17;;
27383;SDS011;14851;51.166;4.760;2022-08-19T01:34:43;33.03;;;29.23;;
27383;SDS011;14851;51.166;4.760;2022-08-19T01:37:12;38.00;;;32.17;;
27383;SDS011;14851;51.166;4.760;2022-08-19T01:39:40;39.67;;;33.50;;
27383;SDS011;14851;51.166;4.760;2022-08-19T01:42:10;42.13;;;34.90;;
27383;SDS011;14851;51.166;4.760;2022-08-19T01:44:37;37.22;;;30.95;;
27383;SDS011;14851;51.166;4.760;2022-08-19T01:47:08;39.08;;;30.95;;
27383;SDS011;14851;51.166;4.760;2022-08-19T01:49:37;43.30;;;34.80;;
27383;SDS011;14851;51.166;4.760;2022-08-19T01:52:04;48.53;;;38.22;;
27383;SDS011;14851;51.166;4.760;2022-08-19T01:54:31;48.80;;;39.40;;
27383;SDS011;14851;51.166;4.760;2022-08-19T01:57:01;49.70;;;40.20;;
27383;SDS011;14851;51.166;4.760;2022-08-19T01:59:34;48.45;;;39.40;;
27383;SDS011;14851;51.166;4.760;2022-08-19T02:02:02;52.88;;;41.67;;
27383;SDS011;14851;51.166;4.760;2022-08-19T02:04:36;50.00;;;40.80;;
27383;SDS011;14851;51.166;4.760;2022-08-19T02:07:06;52.92;;;41.45;;
27383;SDS011;14851;51.166;4.760;2022-08-19T02:09:33;50.35;;;40.78;;
27383;SDS011;14851;51.166;4.760;2022-08-19T02:12:01;44.03;;;35.83;;
27383;SDS011;14851;51.166;4.760;2022-08-19T02:14:27;46.75;;;38.00;;
27383;SDS011;14851;51.166;4.760;2022-08-19T02:16:56;50.88;;;41.80;;
27383;SDS011;14851;51.166;4.760;2022-08-19T02:19:24;52.78;;;42.53;;
27383;SDS011;14851;51.166;4.760;2022-08-19T02:21:51;53.28;;;42.33;;
27383;SDS011;14851;51.166;4.760;2022-08-19T02:24:17;50.00;;;40.83;;
27383;SDS011;14851;51.166;4.760;2022-08-19T02:26:44;55.38;;;41.92;;
27383;SDS011;14851;51.166;4.760;2022-08-19T02:29:10;50.67;;;42.17;;
27383;SDS011;14851;51.166;4.760;2022-08-19T02:31:36;55.97;;;43.88;;
27383;SDS011;14851;51.166;4.760;2022-08-19T02:34:04;54.75;;;42.15;;
27383;SDS011;14851;51.166;4.760;2022-08-19T02:36:30;57.75;;;44.17;;
27383;SDS011;14851;51.166;4.760;2022-08-19T02:38:57;51.88;;;42.33;;
27383;SDS011;14851;51.166;4.760;2022-08-19T02:41:26;56.38;;;42.20;;
27383;SDS011;14851;51.166;4.760;2022-08-19T02:43:56;57.05;;;44.00;;
27383;SDS011;14851;51.166;4.760;2022-08-19T02:46:26;58.38;;;43.72;;
27383;SDS011;14851;51.166;4.760;2022-08-19T02:48:55;52.17;;;42.05;;
27383;SDS011;14851;51.166;4.760;2022-08-19T02:51:25;56.47;;;43.58;;
27383;SDS011;14851;51.166;4.760;2022-08-19T02:53:58;54.53;;;43.05;;
27383;SDS011;14851;51.166;4.760;2022-08-19T02:56:25;57.22;;;43.42;;
27383;SDS011;14851;51.166;4.760;2022-08-19T02:58:53;56.00;;;44.08;;
27383;SDS011;14851;51.166;4.760;2022-08-19T03:01:27;56.15;;;41.63;;
27383;SDS011;14851;51.166;4.760;2022-08-19T03:03:55;53.33;;;42.90;;
27383;SDS011;14851;51.166;4.760;2022-08-19T03:06:23;54.80;;;43.13;;
27383;SDS011;14851;51.166;4.760;2022-08-19T03:08:50;58.83;;;42.60;;
27383;SDS011;14851;51.166;4.760;2022-08-19T03:11:26;56.70;;;42.15;;
27383;SDS011;14851;51.166;4.760;2022-08-19T03:13:54;54.92;;;42.78;;
27383;SDS011;14851;51.166;4.760;2022-08-19T03:16:25;60.70;;;46.50;;
27383;SDS011;14851;51.166;4.760;2022-08-19T03:19:06;57.90;;;43.97;;
27383;SDS011;14851;51.166;4.760;2022-08-19T03:21:32;55.50;;;43.35;;
27383;SDS011;14851;51.166;4.760;2022-08-19T03:24:01;57.60;;;43.15;;
27383;SDS011;14851;51.166;4.760;2022-08-19T03:26:31;59.85;;;43.63;;
27383;SDS011;14851;51.166;4.760;2022-08-19T03:29:01;55.95;;;43.13;;
27383;SDS011;14851;51.166;4.760;2022-08-19T03:31:28;55.20;;;43.53;;
27383;SDS011;14851;51.166;4.760;2022-08-19T03:33:55;61.75;;;45.30;;
27383;SDS011;14851;51.166;4.760;2022-08-19T03:36:23;65.10;;;45.83;;
27383;SDS011;14851;51.166;4.760;2022-08-19T03:38:52;60.85;;;45.55;;
27383;SDS011;14851;51.166;4.760;2022-08-19T03:41:21;63.35;;;46.58;;
27383;SDS011;14851;51.166;4.760;2022-08-19T03:43:49;62.80;;;47.17;;
27383;SDS011;14851;51.166;4.760;2022-08-19T03:46:18;65.63;;;47.75;;
27383;SDS011;14851;51.166;4.760;2022-08-19T03:51:28;64.60;;;45.92;;
27383;SDS011;14851;51.166;4.760;2022-08-19T03:53:59;64.47;;;45.55;;
27383;SDS011;14851;51.166;4.760;2022-08-19T03:56:26;67.10;;;49.28;;
27383;SDS011;14851;51.166;4.760;2022-08-19T03:58:55;62.92;;;46.90;;
27383;SDS011;14851;51.166;4.760;2022-08-19T04:01:23;67.78;;;48.65;;
27383;SDS011;14851;51.166;4.760;2022-08-19T04:03:51;67.25;;;47.67;;
27383;SDS011;14851;51.166;4.760;2022-08-19T04:06:21;62.80;;;46.30;;
27383;SDS011;14851;51.166;4.760;2022-08-19T04:08:50;62.97;;;45.85;;
27383;SDS011;14851;51.166;4.760;2022-08-19T04:11:20;64.33;;;47.27;;
27383;SDS011;14851;51.166;4.760;2022-08-19T04:13:50;62.95;;;46.13;;
27383;SDS011;14851;51.166;4.760;2022-08-19T04:16:21;58.30;;;43.85;;
27383;SDS011;14851;51.166;4.760;2022-08-19T04:18:49;62.67;;;45.58;;
27383;SDS011;14851;51.166;4.760;2022-08-19T04:21:22;62.78;;;44.47;;
27383;SDS011;14851;51.166;4.760;2022-08-19T04:23:49;62.70;;;45.20;;
27383;SDS011;14851;51.166;4.760;2022-08-19T04:26:17;63.40;;;44.63;;
27383;SDS011;14851;51.166;4.760;2022-08-19T04:28:51;57.90;;;42.72;;
27383;SDS011;14851;51.166;4.760;2022-08-19T04:31:20;61.05;;;42.75;;
27383;SDS011;14851;51.166;4.760;2022-08-19T04:34:01;61.47;;;44.60;;
27383;SDS011;14851;51.166;4.760;2022-08-19T04:36:34;65.28;;;45.10;;
27383;SDS011;14851;51.166;4.760;2022-08-19T04:39:06;57.85;;;42.47;;
27383;SDS011;14851;51.166;4.760;2022-08-19T04:41:35;57.15;;;43.08;;
27383;SDS011;14851;51.166;4.760;2022-08-19T04:44:23;63.70;;;44.17;;
27383;SDS011;14851;51.166;4.760;2022-08-19T04:46:49;67.85;;;45.58;;
27383;SDS011;14851;51.166;4.760;2022-08-19T04:49:15;67.07;;;44.08;;
27383;SDS011;14851;51.166;4.760;2022-08-19T04:51:44;61.47;;;42.20;;
27383;SDS011;14851;51.166;4.760;2022-08-19T04:54:13;59.13;;;42.22;;
27383;SDS011;14851;51.166;4.760;2022-08-19T04:56:40;55.50;;;39.47;;
27383;SDS011;14851;51.166;4.760;2022-08-19T04:59:07;58.80;;;40.80;;
27383;SDS011;14851;51.166;4.760;2022-08-19T05:01:36;59.25;;;41.33;;
27383;SDS011;14851;51.166;4.760;2022-08-19T05:04:04;57.45;;;38.67;;
27383;SDS011;14851;51.166;4.760;2022-08-19T05:06:31;59.35;;;39.53;;
27383;SDS011;14851;51.166;4.760;2022-08-19T05:09:02;56.53;;;39.97;;
27383;SDS011;14851;51.166;4.760;2022-08-19T05:11:31;54.72;;;39.72;;
27383;SDS011;14851;51.166;4.760;2022-08-19T05:13:59;50.97;;;39.22;;
27383;SDS011;14851;51.166;4.760;2022-08-19T05:16:28;54.22;;;39.42;;
27383;SDS011;14851;51.166;4.760;2022-08-19T05:18:55;54.85;;;39.03;;
27383;SDS011;14851;51.166;4.760;2022-08-19T05:21:40;54.25;;;37.85;;
27383;SDS011;14851;51.166;4.760;2022-08-19T05:24:26;56.60;;;38.15;;
27383;SDS011;14851;51.166;4.760;2022-08-19T05:26:53;39.38;;;28.08;;
27383;SDS011;14851;51.166;4.760;2022-08-19T05:29:22;51.03;;;35.88;;
27383;SDS011;14851;51.166;4.760;2022-08-19T05:31:50;49.50;;;35.92;;
27383;SDS011;14851;51.166;4.760;2022-08-19T05:34:19;50.88;;;34.97;;
27383;SDS011;14851;51.166;4.760;2022-08-19T05:36:47;53.17;;;36.72;;
27383;SDS011;14851;51.166;4.760;2022-08-19T05:39:18;57.45;;;38.92;;
27383;SDS011;14851;51.166;4.760;2022-08-19T05:41:47;55.17;;;37.00;;
27383;SDS011;14851;51.166;4.760;2022-08-19T05:44:14;51.70;;;35.10;;
27383;SDS011;14851;51.166;4.760;2022-08-19T05:46:44;53.35;;;36.03;;
27383;SDS011;14851;51.166;4.760;2022-08-19T05:49:14;47.65;;;34.72;;
27383;SDS011;14851;51.166;4.760;2022-08-19T05:51:41;55.08;;;35.90;;
27383;SDS011;14851;51.166;4.760;2022-08-19T05:54:07;55.25;;;34.60;;
27383;SDS011;14851;51.166;4.760;2022-08-19T05:56:34;46.75;;;33.75;;
27383;SDS011;14851;51.166;4.760;2022-08-19T05:59:03;51.75;;;32.50;;
27383;SDS011;14851;51.166;4.760;2022-08-19T06:01:34;34.38;;;26.48;;
27383;SDS011;14851;51.166;4.760;2022-08-19T06:04:00;37.63;;;27.05;;
27383;SDS011;14851;51.166;4.760;2022-08-19T06:06:26;43.58;;;30.42;;
27383;SDS011;14851;51.166;4.760;2022-08-19T06:08:54;39.30;;;27.52;;
27383;SDS011;14851;51.166;4.760;2022-08-19T06:11:22;35.40;;;26.40;;
27383;SDS011;14851;51.166;4.760;2022-08-19T06:14:04;34.58;;;26.58;;
27383;SDS011;14851;51.166;4.760;2022-08-19T06:16:34;22.92;;;18.65;;
27383;SDS011;14851;51.166;4.760;2022-08-19T06:19:03;30.95;;;23.40;;
27383;SDS011;14851;51.166;4.760;2022-08-19T06:21:32;36.55;;;26.50;;
27383;SDS011;14851;51.166;4.760;2022-08-19T06:23:58;35.25;;;25.73;;
27383;SDS011;14851;51.166;4.760;2022-08-19T06:26:26;10.50;;;9.25;;
27383;SDS011;14851;51.166;4.760;2022-08-19T06:28:52;18.65;;;14.60;;
27383;SDS011;14851;51.166;4.760;2022-08-19T06:31:23;13.88;;;11.80;;
27383;SDS011;14851;51.166;4.760;2022-08-19T06:33:51;28.42;;;22.35;;
27383;SDS011;14851;51.166;4.760;2022-08-19T06:38:53;25.17;;;20.13;;
27383;SDS011;14851;51.166;4.760;2022-08-19T06:41:26;29.50;;;22.88;;
27383;SDS011;14851;51.166;4.760;2022-08-19T06:43:54;28.67;;;22.52;;
27383;SDS011;14851;51.166;4.760;2022-08-19T06:46:23;22.60;;;18.50;;
27383;SDS011;14851;51.166;4.760;2022-08-19T06:48:53;29.47;;;21.00;;
27383;SDS011;14851;51.166;4.760;2022-08-19T06:51:20;26.42;;;20.33;;
27383;SDS011;14851;51.166;4.760;2022-08-19T06:53:51;10.75;;;8.35;;
27383;SDS011;14851;51.166;4.760;2022-08-19T06:56:25;20.17;;;13.40;;
27383;SDS011;14851;51.166;4.760;2022-08-19T06:59:00;24.08;;;16.08;;
27383;SDS011;14851;51.166;4.760;2022-08-19T07:01:33;16.92;;;11.88;;
27383;SDS011;14851;51.166;4.760;2022-08-19T07:04:08;15.15;;;10.65;;
27383;SDS011;14851;51.166;4.760;2022-08-19T07:06:35;14.60;;;10.98;;
27383;SDS011;14851;51.166;4.760;2022-08-19T07:09:07;17.55;;;11.40;;
27383;SDS011;14851;51.166;4.760;2022-08-19T07:11:35;11.73;;;9.68;;
27383;SDS011;14851;51.166;4.760;2022-08-19T07:14:04;19.70;;;13.55;;
27383;SDS011;14851;51.166;4.760;2022-08-19T07:16:31;20.40;;;12.73;;
27383;SDS011;14851;51.166;4.760;2022-08-19T07:18:58;22.75;;;13.50;;
27383;SDS011;14851;51.166;4.760;2022-08-19T07:21:26;24.88;;;14.88;;
27383;SDS011;14851;51.166;4.760;2022-08-19T07:23:56;26.42;;;14.95;;
27383;SDS011;14851;51.166;4.760;2022-08-19T07:28:51;15.63;;;7.18;;
27383;SDS011;14851;51.166;4.760;2022-08-19T07:31:19;18.67;;;11.27;;
27383;SDS011;14851;51.166;4.760;2022-08-19T07:33:48;13.80;;;9.37;;
27383;SDS011;14851;51.166;4.760;2022-08-19T07:36:17;22.92;;;13.80;;
27383;SDS011;14851;51.166;4.760;2022-08-19T07:38:47;10.95;;;5.75;;
27383;SDS011;14851;51.166;4.760;2022-08-19T07:41:15;16.02;;;9.85;;
27383;SDS011;14851;51.166;4.760;2022-08-19T07:43:44;14.65;;;7.90;;
27383;SDS011;14851;51.166;4.760;2022-08-19T07:46:11;12.50;;;6.45;;
27383;SDS011;14851;51.166;4.760;2022-08-19T07:48:38;15.38;;;8.88;;
27383;SDS011;14851;51.166;4.760;2022-08-19T07:51:06;14.68;;;9.30;;
27383;SDS011;14851;51.166;4.760;2022-08-19T07:53:34;12.52;;;8.32;;
27383;SDS011;14851;51.166;4.760;2022-08-19T07:56:04;14.07;;;11.25;;
27383;SDS011;14851;51.166;4.760;2022-08-19T07:58:31;14.15;;;10.48;;
27383;SDS011;14851;51.166;4.760;2022-08-19T08:01:00;10.82;;;7.85;;
27383;SDS011;14851;51.166;4.760;2022-08-19T08:03:28;11.30;;;8.10;;
27383;SDS011;14851;51.166;4.760;2022-08-19T08:06:14;15.10;;;10.48;;
27383;SDS011;14851;51.166;4.760;2022-08-19T08:08:59;17.88;;;9.85;;
27383;SDS011;14851;51.166;4.760;2022-08-19T08:11:43;16.67;;;9.07;;
27383;SDS011;14851;51.166;4.760;2022-08-19T08:14:23;10.32;;;6.55;;
27383;SDS011;14851;51.166;4.760;2022-08-19T08:16:53;12.02;;;5.50;;
27383;SDS011;14851;51.166;4.760;2022-08-19T08:19:20;13.35;;;7.30;;
27383;SDS011;14851;51.166;4.760;2022-08-19T08:21:50;12.75;;;7.30;;
27383;SDS011;14851;51.166;4.760;2022-08-19T08:24:18;15.98;;;6.88;;
27383;SDS011;14851;51.166;4.760;2022-08-19T08:26:44;16.27;;;11.02;;
27383;SDS011;14851;51.166;4.760;2022-08-19T08:29:13;14.90;;;5.63;;
27383;SDS011;14851;51.166;4.760;2022-08-19T08:31:42;15.05;;;11.32;;
27383;SDS011;14851;51.166;4.760;2022-08-19T08:34:10;17.48;;;10.98;;
27383;SDS011;14851;51.166;4.760;2022-08-19T08:36:39;15.00;;;10.02;;
27383;SDS011;14851;51.166;4.760;2022-08-19T08:39:08;25.75;;;13.40;;
27383;SDS011;14851;51.166;4.760;2022-08-19T08:47:02;15.38;;;10.70;;
27383;SDS011;14851;51.166;4.760;2022-08-19T08:49:44;14.57;;;10.73;;
27383;SDS011;14851;51.166;4.760;2022-08-19T08:52:33;12.90;;;6.28;;
27383;SDS011;14851;51.166;4.760;2022-08-19T08:55:07;16.75;;;11.82;;
27383;SDS011;14851;51.166;4.760;2022-08-19T08:57:59;10.70;;;5.90;;
27383;SDS011;14851;51.166;4.760;2022-08-19T09:00:30;18.05;;;9.63;;
27383;SDS011;14851;51.166;4.760;2022-08-19T09:03:03;18.50;;;7.30;;
27383;SDS011;14851;51.166;4.760;2022-08-19T09:05:43;30.23;;;8.68;;
27383;SDS011;14851;51.166;4.760;2022-08-19T09:08:27;32.53;;;7.72;;
27383;SDS011;14851;51.166;4.760;2022-08-19T09:11:15;19.23;;;11.93;;
27383;SDS011;14851;51.166;4.760;2022-08-19T09:16:57;13.57;;;9.43;;
27383;SDS011;14851;51.166;4.760;2022-08-19T09:19:28;15.68;;;11.88;;
27383;SDS011;14851;51.166;4.760;2022-08-19T09:21:55;14.82;;;10.30;;
27383;SDS011;14851;51.166;4.760;2022-08-19T09:24:21;16.33;;;13.45;;
27383;SDS011;14851;51.166;4.760;2022-08-19T09:26:48;9.85;;;6.35;;
27383;SDS011;14851;51.166;4.760;2022-08-19T09:29:14;11.30;;;9.95;;
27383;SDS011;14851;51.166;4.760;2022-08-19T09:31:39;9.48;;;5.35;;
27383;SDS011;14851;51.166;4.760;2022-08-19T09:34:08;13.82;;;11.25;;
27383;SDS011;14851;51.166;4.760;2022-08-19T09:36:34;15.52;;;10.73;;
27383;SDS011;14851;51.166;4.760;2022-08-19T09:39:04;9.45;;;7.07;;
27383;SDS011;14851;51.166;4.760;2022-08-19T09:41:31;12.88;;;11.45;;
27383;SDS011;14851;51.166;4.760;2022-08-19T09:44:00;14.65;;;10.88;;
27383;SDS011;14851;51.166;4.760;2022-08-19T09:46:27;15.88;;;11.52;;
27383;SDS011;14851;51.166;4.760;2022-08-19T09:48:54;8.23;;;5.85;;
27383;SDS011;14851;51.166;4.760;2022-08-19T09:51:24;12.37;;;6.20;;
27383;SDS011;14851;51.166;4.760;2022-08-19T09:53:53;11.25;;;9.02;;
27383;SDS011;14851;51.166;4.760;2022-08-19T09:56:21;8.05;;;6.20;;
27383;SDS011;14851;51.166;4.760;2022-08-19T09:58:47;10.73;;;7.90;;
27383;SDS011;14851;51.166;4.760;2022-08-19T10:01:21;14.30;;;9.65;;
27383;SDS011;14851;51.166;4.760;2022-08-19T10:03:50;13.27;;;8.10;;
27383;SDS011;14851;51.166;4.760;2022-08-19T10:06:20;7.25;;;6.20;;
27383;SDS011;14851;51.166;4.760;2022-08-19T10:08:50;11.25;;;7.78;;
27383;SDS011;14851;51.166;4.760;2022-08-19T10:11:17;6.43;;;5.10;;
27383;SDS011;14851;51.166;4.760;2022-08-19T10:13:44;6.72;;;5.22;;
27383;SDS011;14851;51.166;4.760;2022-08-19T10:16:11;14.27;;;7.80;;
27383;SDS011;14851;51.166;4.760;2022-08-19T10:18:44;13.48;;;7.63;;
27383;SDS011;14851;51.166;4.760;2022-08-19T10:21:16;9.93;;;7.03;;
27383;SDS011;14851;51.166;4.760;2022-08-19T10:23:50;7.97;;;6.60;;
27383;SDS011;14851;51.166;4.760;2022-08-19T10:26:23;8.95;;;7.80;;
27383;SDS011;14851;51.166;4.760;2022-08-19T10:28:51;9.27;;;6.00;;
27383;SDS011;14851;51.166;4.760;2022-08-19T10:31:18;6.13;;;4.38;;
27383;SDS011;14851;51.166;4.760;2022-08-19T10:33:47;9.00;;;6.20;;
27383;SDS011;14851;51.166;4.760;2022-08-19T10:36:20;10.68;;;7.55;;
27383;SDS011;14851;51.166;4.760;2022-08-19T10:38:51;10.77;;;7.03;;
27383;SDS011;14851;51.166;4.760;2022-08-19T10:41:22;4.95;;;4.38;;
27383;SDS011;14851;51.166;4.760;2022-08-19T10:43:50;6.82;;;5.25;;
27383;SDS011;14851;51.166;4.760;2022-08-19T10:48:48;6.28;;;4.82;;
27383;SDS011;14851;51.166;4.760;2022-08-19T10:51:15;5.32;;;3.90;;
27383;SDS011;14851;51.166;4.760;2022-08-19T10:54:00;7.65;;;6.15;;
27383;SDS011;14851;51.166;4.760;2022-08-19T10:56:27;6.10;;;5.30;;
27383;SDS011;14851;51.166;4.760;2022-08-19T10:59:12;6.20;;;3.97;;
27383;SDS011;14851;51.166;4.760;2022-08-19T11:01:39;10.15;;;8.30;;
27383;SDS011;14851;51.166;4.760;2022-08-19T11:04:09;13.50;;;6.57;;
27383;SDS011;14851;51.166;4.760;2022-08-19T11:06:37;11.48;;;4.22;;
27383;SDS011;14851;51.166;4.760;2022-08-19T11:09:04;13.50;;;4.80;;
27383;SDS011;14851;51.166;4.760;2022-08-19T11:11:31;11.75;;;8.60;;
27383;SDS011;14851;51.166;4.760;2022-08-19T11:13:58;16.65;;;8.20;;
27383;SDS011;14851;51.166;4.760;2022-08-19T11:16:25;6.97;;;4.95;;
27383;SDS011;14851;51.166;4.760;2022-08-19T11:18:56;12.48;;;4.32;;
27383;SDS011;14851;51.166;4.760;2022-08-19T11:21:25;10.38;;;8.02;;
27383;SDS011;14851;51.166;4.760;2022-08-19T11:23:58;6.45;;;4.32;;
27383;SDS011;14851;51.166;4.760;2022-08-19T11:26:26;10.52;;;6.70;;
27383;SDS011;14851;51.166;4.760;2022-08-19T11:28:56;8.75;;;5.63;;
27383;SDS011;14851;51.166;4.760;2022-08-19T11:31:25;12.98;;;9.18;;
27383;SDS011;14851;51.166;4.760;2022-08-19T11:33:57;10.05;;;8.48;;
27383;SDS011;14851;51.166;4.760;2022-08-19T11:36:25;8.23;;;7.15;;
27383;SDS011;14851;51.166;4.760;2022-08-19T11:38:52;14.57;;;11.88;;
27383;SDS011;14851;51.166;4.760;2022-08-19T11:41:19;7.78;;;5.07;;
27383;SDS011;14851;51.166;4.760;2022-08-19T11:43:48;8.07;;;5.75;;
27383;SDS011;14851;51.166;4.760;2022-08-19T11:46:16;10.85;;;9.38;;
27383;SDS011;14851;51.166;4.760;2022-08-19T11:48:42;10.40;;;7.95;;
27383;SDS011;14851;51.166;4.760;2022-08-19T11:51:11;4.60;;;3.35;;
27383;SDS011;14851;51.166;4.760;2022-08-19T11:53:41;10.73;;;7.43;;
27383;SDS011;14851;51.166;4.760;2022-08-19T11:56:07;13.82;;;8.23;;
27383;SDS011;14851;51.166;4.760;2022-08-19T11:58:34;9.38;;;7.03;;
27383;SDS011;14851;51.166;4.760;2022-08-19T12:01:06;17.33;;;12.27;;
27383;SDS011;14851;51.166;4.760;2022-08-19T12:03:36;6.53;;;4.80;;
27383;SDS011;14851;51.166;4.760;2022-08-19T12:06:07;13.40;;;11.02;;
27383;SDS011;14851;51.166;4.760;2022-08-19T12:08:35;6.18;;;4.47;;
27383;SDS011;14851;51.166;4.760;2022-08-19T12:11:01;8.13;;;6.78;;
27383;SDS011;14851;51.166;4.760;2022-08-19T12:13:28;18.15;;;14.88;;
27383;SDS011;14851;51.166;4.760;2022-08-19T12:16:00;12.38;;;9.68;;
27383;SDS011;14851;51.166;4.760;2022-08-19T12:18:31;13.55;;;10.13;;
27383;SDS011;14851;51.166;4.760;2022-08-19T12:20:57;13.48;;;10.10;;
27383;SDS011;14851;51.166;4.760;2022-08-19T12:23:25;13.95;;;12.48;;
27383;SDS011;14851;51.166;4.760;2022-08-19T12:25:51;8.02;;;5.63;;
27383;SDS011;14851;51.166;4.760;2022-08-19T12:28:18;11.55;;;7.65;;
27383;SDS011;14851;51.166;4.760;2022-08-19T12:30:45;12.20;;;8.15;;
27383;SDS011;14851;51.166;4.760;2022-08-19T12:33:11;10.07;;;7.22;;
27383;SDS011;14851;51.166;4.760;2022-08-19T12:35:40;14.27;;;9.55;;
27383;SDS011;14851;51.166;4.760;2022-08-19T12:38:07;9.13;;;5.97;;
27383;SDS011;14851;51.166;4.760;2022-08-19T12:40:33;8.63;;;6.43;;
27383;SDS011;14851;51.166;4.760;2022-08-19T12:43:02;8.52;;;5.57;;
27383;SDS011;14851;51.166;4.760;2022-08-19T12:45:28;8.65;;;6.00;;
27383;SDS011;14851;51.166;4.760;2022-08-19T12:47:55;6.90;;;5.78;;
27383;SDS011;14851;51.166;4.760;2022-08-19T12:50:21;10.90;;;6.15;;
27383;SDS011;14851;51.166;4.760;2022-08-19T12:52:48;9.68;;;5.68;;
27383;SDS011;14851;51.166;4.760;2022-08-19T12:55:18;10.60;;;6.30;;
27383;SDS011;14851;51.166;4.760;2022-08-19T12:57:47;14.50;;;5.70;;
27383;SDS011;14851;51.166;4.760;2022-08-19T13:00:18;9.02;;;5.60;;
27383;SDS011;14851;51.166;4.760;2022-08-19T13:02:47;10.30;;;4.97;;
27383;SDS011;14851;51.166;4.760;2022-08-19T13:05:22;6.30;;;5.10;;
27383;SDS011;14851;51.166;4.760;2022-08-19T13:07:50;8.70;;;5.40;;
27383;SDS011;14851;51.166;4.760;2022-08-19T13:10:19;10.73;;;4.63;;
27383;SDS011;14851;51.166;4.760;2022-08-19T13:12:51;7.38;;;4.40;;
27383;SDS011;14851;51.166;4.760;2022-08-19T13:15:19;9.45;;;5.50;;
27383;SDS011;14851;51.166;4.760;2022-08-19T13:17:46;5.70;;;3.70;;
27383;SDS011;14851;51.166;4.760;2022-08-19T13:20:16;5.70;;;3.95;;
27383;SDS011;14851;51.166;4.760;2022-08-19T13:22:44;4.07;;;2.90;;
27383;SDS011;14851;51.166;4.760;2022-08-19T13:25:13;4.43;;;3.15;;
27383;SDS011;14851;51.166;4.760;2022-08-19T13:27:42;3.65;;;2.50;;
27383;SDS011;14851;51.166;4.760;2022-08-19T13:30:09;4.68;;;3.45;;
27383;SDS011;14851;51.166;4.760;2022-08-19T13:32:55;6.43;;;2.30;;
27383;SDS011;14851;51.166;4.760;2022-08-19T13:35:45;3.13;;;2.78;;
27383;SDS011;14851;51.166;4.760;2022-08-19T13:38:18;3.65;;;2.75;;
27383;SDS011;14851;51.166;4.760;2022-08-19T13:40:47;3.42;;;2.45;;
27383;SDS011;14851;51.166;4.760;2022-08-19T13:43:15;4.78;;;3.08;;
27383;SDS011;14851;51.166;4.760;2022-08-19T13:45:45;6.18;;;4.20;;
27383;SDS011;14851;51.166;4.760;2022-08-19T13:48:14;4.35;;;3.42;;
27383;SDS011;14851;51.166;4.760;2022-08-19T13:50:42;4.38;;;3.75;;
27383;SDS011;14851;51.166;4.760;2022-08-19T13:53:12;4.63;;;2.28;;
27383;SDS011;14851;51.166;4.760;2022-08-19T13:55:40;3.50;;;2.87;;
27383;SDS011;14851;51.166;4.760;2022-08-19T13:58:08;3.47;;;2.58;;
27383;SDS011;14851;51.166;4.760;2022-08-19T14:00:39;3.25;;;2.10;;
27383;SDS011;14851;51.166;4.760;2022-08-19T14:03:07;6.32;;;2.85;;
27383;SDS011;14851;51.166;4.760;2022-08-19T14:05:34;5.53;;;2.15;;
27383;SDS011;14851;51.166;4.760;2022-08-19T14:08:02;5.65;;;2.80;;
27383;SDS011;14851;51.166;4.760;2022-08-19T14:10:31;4.60;;;3.13;;
27383;SDS011;14851;51.166;4.760;2022-08-19T14:12:59;5.05;;;2.53;;
27383;SDS011;14851;51.166;4.760;2022-08-19T14:15:28;6.00;;;2.95;;
27383;SDS011;14851;51.166;4.760;2022-08-19T14:17:55;3.90;;;2.88;;
27383;SDS011;14851;51.166;4.760;2022-08-19T14:20:23;5.80;;;3.13;;
27383;SDS011;14851;51.166;4.760;2022-08-19T14:22:50;4.00;;;2.60;;
27383;SDS011;14851;51.166;4.760;2022-08-19T14:25:21;6.55;;;3.65;;
27383;SDS011;14851;51.166;4.760;2022-08-19T14:27:52;3.53;;;1.98;;
27383;SDS011;14851;51.166;4.760;2022-08-19T14:30:21;4.55;;;2.10;;
27383;SDS011;14851;51.166;4.760;2022-08-19T14:32:55;2.85;;;2.40;;
27383;SDS011;14851;51.166;4.760;2022-08-19T14:35:24;3.15;;;2.25;;
27383;SDS011;14851;51.166;4.760;2022-08-19T14:37:51;3.42;;;2.17;;
27383;SDS011;14851;51.166;4.760;2022-08-19T14:40:26;3.75;;;2.85;;
27383;SDS011;14851;51.166;4.760;2022-08-19T14:42:54;3.90;;;2.95;;
27383;SDS011;14851;51.166;4.760;2022-08-19T14:45:25;3.28;;;2.35;;
27383;SDS011;14851;51.166;4.760;2022-08-19T14:47:55;3.25;;;2.28;;
27383;SDS011;14851;51.166;4.760;2022-08-19T14:50:22;3.55;;;2.45;;
27383;SDS011;14851;51.166;4.760;2022-08-19T14:52:56;3.58;;;2.47;;
27383;SDS011;14851;51.166;4.760;2022-08-19T14:55:29;4.05;;;2.75;;
27383;SDS011;14851;51.166;4.760;2022-08-19T14:57:58;4.40;;;2.87;;
27383;SDS011;14851;51.166;4.760;2022-08-19T15:00:25;6.15;;;3.10;;
27383;SDS011;14851;51.166;4.760;2022-08-19T15:02:53;4.35;;;2.53;;
27383;SDS011;14851;51.166;4.760;2022-08-19T15:05:20;3.75;;;2.63;;